メインページ
METAR-TAF:

METAR-TAF

空港 :

ルクセンブルク-フィンデル空港

ルクセンブルク, ルクセンブルク

緯度: 49-37N, 経度: 006-13E, 海抜: 376m

現時点の気象観測

当レポートは17分前の23:20(UTC)に作成
北東の風 6kt
気温 21°C
湿度 49%
気圧 1014 hPa
視程10km以上

METAR: ELLX 162320Z AUTO 04006KT 9999 NCD 21/10 Q1014 NOSIG

時間: 01:37 (23:37 UTC)

予報

当レポートは6時間37分前の17:00(UTC)に作成
予報は16日の 18時(UTC)から 17日の 24時(UTC)まで有効
北/北東の風 7kt
視程10km以上
1,500メートル以下は雲なし、積乱雲なし
17日の 09時(UTC)から 17日の 12時(UTC)まで徐々に
西の風 10kt、最大20ktの突風を伴う
17日の 09時(UTC)から 17日の 18時(UTC)まで一時的に
高度7000ftの雲は散在している, 塔状積雲.

TAF: ELLX 161700Z 1618/1724 02007KT CAVOK BECMG 1709/1712 28010G20KT TEMPO 1709/1718 SCT070TCU

4,000以上の空港の気象観測と天気予報(METAR報とTAF報)

利用可能な観測所は地図上に黄色い丸と赤い丸で示す。

丸の上にカーソルを重ねると観測所名を参照できる。

次にクリックすると気象観測と天気予報を参照できる。

マップの切り替え:黒色「×」印の緑ボタンをクリックして拡大、「-」印の緑ボタンをクリックして縮小、緑色の三角印をクリックして隣りの地図に切り替え


METAR-TAF: